Time;durP1;ratioP1;P1;durP2;ratioP2;P2;SDS_P1;SDS_P2;PMS_P1;PMS_P2;Temp;Humidity;BMP_temperature;BMP_pressure;BME280_temperature;BME280_humidity;BME280_pressure;Samples;Min_cycle;Max_cycle;Signal;HPM_P1;HPM_P2
2022/04/09 00:00:07;;;;;;;15.20;2.78;;;;;;;;;;5026184;28;20030;-66
2022/04/09 00:02:35;;;;;;;24.55;2.60;;;;;;;;;;5017040;28;20509;-66
2022/04/09 00:05:01;;;;;;;19.20;2.70;;;;;;;;;;5027289;28;20041;-66
2022/04/09 00:07:28;;;;;;;22.52;2.92;;;;;;;;;;5024011;28;20032;-66
2022/04/09 00:09:54;;;;;;;10.95;2.85;;;;;;;;;;5014058;28;20030;-66
2022/04/09 00:12:19;;;;;;;103.15;4.93;;;;;;;;;;5020026;28;20080;-67
2022/04/09 00:14:45;;;;;;;13.00;2.30;;;;;;;;;;5026794;28;20034;-67
2022/04/09 00:17:10;;;;;;;13.40;2.58;;;;;;;;;;5022831;28;20040;-67
2022/04/09 00:19:36;;;;;;;24.10;2.70;;;;;;;;;;5029965;28;20028;-67
2022/04/09 00:22:03;;;;;;;10.85;2.20;;;;;;;;;;5014998;28;20030;-67
2022/04/09 00:24:29;;;;;;;6.53;2.67;;;;;;;;;;5018633;28;20030;-67
2022/04/09 00:26:54;;;;;;;9.75;2.17;;;;;;;;;;5023634;28;20045;-67
2022/04/09 00:29:20;;;;;;;18.42;2.60;;;;;;;;;;5021577;28;20029;-67
2022/04/09 00:31:46;;;;;;;7.65;2.30;;;;;;;;;;5019224;28;20113;-67
2022/04/09 00:34:12;;;;;;;9.32;1.98;;;;;;;;;;5017332;28;20029;-67
2022/04/09 00:36:38;;;;;;;5.65;1.95;;;;;;;;;;5026577;28;20144;-67
2022/04/09 00:39:03;;;;;;;12.38;2.17;;;;;;;;;;5024056;28;20049;-66
2022/04/09 00:41:29;;;;;;;3.67;1.63;;;;;;;;;;5022139;28;20654;-67
2022/04/09 00:43:55;;;;;;;12.93;2.20;;;;;;;;;;5017898;28;20049;-68
2022/04/09 00:46:20;;;;;;;8.00;1.77;;;;;;;;;;5015064;28;20049;-67
2022/04/09 00:48:46;;;;;;;8.35;1.98;;;;;;;;;;5017756;28;20025;-67
2022/04/09 00:51:12;;;;;;;7.40;1.88;;;;;;;;;;5014211;28;20034;-67
2022/04/09 00:53:42;;;;;;;9.90;1.92;;;;;;;;;;5019628;28;20153;-68
2022/04/09 00:56:13;;;;;;;4.75;1.88;;;;;;;;;;5023032;28;20077;-67
2022/04/09 00:59:01;;;;;;;6.43;1.83;;;;;;;;;;5018204;28;20053;-67
2022/04/09 01:01:28;;;;;;;5.20;1.58;;;;;;;;;;5022189;28;20080;-67
2022/04/09 01:03:55;;;;;;;9.15;1.80;;;;;;;;;;5021090;28;20033;-68
2022/04/09 01:06:21;;;;;;;10.80;1.85;;;;;;;;;;5016550;28;20463;-68
2022/04/09 01:08:47;;;;;;;4.60;1.67;;;;;;;;;;5028221;28;20068;-67
2022/04/09 01:11:14;;;;;;;15.05;2.20;;;;;;;;;;5023993;28;20068;-67
2022/04/09 01:13:46;;;;;;;5.18;1.52;;;;;;;;;;5021711;28;20029;-67
2022/04/09 01:16:12;;;;;;;8.27;1.70;;;;;;;;;;5017755;28;20108;-67
2022/04/09 01:18:41;;;;;;;7.13;1.42;;;;;;;;;;5017838;28;20080;-67
2022/04/09 01:21:06;;;;;;;4.80;1.38;;;;;;;;;;5016665;28;20033;-67
2022/04/09 01:23:33;;;;;;;7.40;1.55;;;;;;;;;;5017076;28;20108;-66
2022/04/09 01:26:00;;;;;;;6.00;1.63;;;;;;;;;;5022343;28;20482;-67
2022/04/09 01:28:26;;;;;;;3.72;1.42;;;;;;;;;;5017383;28;20356;-67
2022/04/09 01:30:52;;;;;;;6.20;1.60;;;;;;;;;;5019803;28;20080;-67
2022/04/09 01:33:20;;;;;;;4.28;1.30;;;;;;;;;;5017692;28;20047;-67
2022/04/09 01:35:46;;;;;;;7.47;1.30;;;;;;;;;;5017203;28;20034;-67
2022/04/09 01:38:13;;;;;;;4.68;1.15;;;;;;;;;;5020419;28;20022;-67
2022/04/09 01:40:39;;;;;;;4.45;1.17;;;;;;;;;;5030406;28;20064;-67
2022/04/09 01:43:05;;;;;;;3.65;0.90;;;;;;;;;;5018082;28;20130;-67
2022/04/09 01:45:31;;;;;;;5.40;1.42;;;;;;;;;;5023259;28;20457;-66
2022/04/09 01:47:58;;;;;;;2.72;1.02;;;;;;;;;;5017875;28;20038;-67
2022/04/09 01:50:26;;;;;;;1.67;0.82;;;;;;;;;;5024929;28;20065;-67
2022/04/09 01:52:54;;;;;;;4.53;0.75;;;;;;;;;;5028518;28;20032;-68
2022/04/09 01:55:20;;;;;;;7.97;0.80;;;;;;;;;;5026819;28;20029;-68
2022/04/09 01:57:47;;;;;;;2.95;0.80;;;;;;;;;;5016683;28;20079;-68
2022/04/09 02:00:14;;;;;;;2.30;0.95;;;;;;;;;;5027980;28;20073;-67
2022/04/09 02:02:41;;;;;;;3.40;0.90;;;;;;;;;;5025153;28;20037;-68
2022/04/09 02:05:07;;;;;;;1.58;0.60;;;;;;;;;;5022165;28;20030;-67
2022/04/09 02:07:35;;;;;;;1.73;0.63;;;;;;;;;;5023209;28;20026;-68
2022/04/09 02:10:00;;;;;;;5.53;0.90;;;;;;;;;;5023997;28;20032;-67
2022/04/09 02:12:30;;;;;;;6.53;0.80;;;;;;;;;;5027739;28;20492;-67
2022/04/09 02:14:56;;;;;;;4.25;0.68;;;;;;;;;;5026426;28;20041;-68
2022/04/09 02:17:22;;;;;;;1.75;0.60;;;;;;;;;;5028197;28;20025;-68
2022/04/09 02:19:48;;;;;;;2.80;1.25;;;;;;;;;;5027659;28;20082;-68
2022/04/09 02:22:13;;;;;;;3.17;0.98;;;;;;;;;;5029611;28;20158;-69
2022/04/09 02:24:40;;;;;;;4.22;0.68;;;;;;;;;;5023451;28;20037;-69
2022/04/09 02:27:06;;;;;;;3.47;0.80;;;;;;;;;;5026187;28;20390;-68
2022/04/09 02:29:32;;;;;;;1.52;0.75;;;;;;;;;;5026337;28;20167;-68
2022/04/09 02:32:00;;;;;;;4.70;0.93;;;;;;;;;;5025832;28;20040;-68
2022/04/09 02:34:26;;;;;;;3.08;0.93;;;;;;;;;;5022355;28;20366;-68
2022/04/09 02:36:51;;;;;;;3.08;1.00;;;;;;;;;;5014688;28;20033;-69
2022/04/09 02:39:21;;;;;;;2.90;0.75;;;;;;;;;;5020623;28;20108;-69
2022/04/09 02:41:50;;;;;;;2.55;0.80;;;;;;;;;;5023859;28;20048;-69
2022/04/09 02:44:19;;;;;;;2.00;0.70;;;;;;;;;;5027476;28;20045;-69
2022/04/09 02:46:47;;;;;;;1.00;0.60;;;;;;;;;;5032348;28;20093;-68
2022/04/09 02:49:13;;;;;;;4.28;0.80;;;;;;;;;;5021533;28;20034;-69
2022/04/09 02:51:39;;;;;;;5.10;0.63;;;;;;;;;;5021738;28;20214;-68
2022/04/09 02:54:05;;;;;;;3.03;0.75;;;;;;;;;;5026860;28;20083;-68
2022/04/09 02:56:30;;;;;;;1.55;0.80;;;;;;;;;;5025152;28;20029;-69
2022/04/09 02:58:56;;;;;;;2.72;0.90;;;;;;;;;;5025372;28;20374;-69
2022/04/09 03:01:24;;;;;;;5.22;0.82;;;;;;;;;;5013330;28;20037;-69
2022/04/09 03:03:50;;;;;;;4.32;0.75;;;;;;;;;;5013861;28;20033;-69
2022/04/09 03:06:16;;;;;;;0.88;0.50;;;;;;;;;;5025017;28;20082;-68
2022/04/09 03:08:42;;;;;;;0.65;0.60;;;;;;;;;;5027273;28;20046;-69
2022/04/09 03:11:08;;;;;;;0.98;0.52;;;;;;;;;;5022345;28;20902;-68
2022/04/09 03:13:34;;;;;;;2.47;0.73;;;;;;;;;;5020805;28;20022;-69
2022/04/09 03:16:00;;;;;;;2.42;0.80;;;;;;;;;;5018094;28;20505;-69
2022/04/09 03:18:25;;;;;;;2.83;0.65;;;;;;;;;;5022217;28;20056;-69
2022/04/09 03:20:51;;;;;;;1.73;0.60;;;;;;;;;;5016916;28;20600;-67
2022/04/09 03:23:17;;;;;;;0.82;0.60;;;;;;;;;;5018552;28;20526;-69
2022/04/09 03:25:43;;;;;;;2.35;0.70;;;;;;;;;;5027766;28;20394;-69
2022/04/09 03:28:09;;;;;;;0.75;0.55;;;;;;;;;;5019012;28;20119;-69
2022/04/09 03:30:35;;;;;;;1.17;0.50;;;;;;;;;;5013625;28;20109;-69
2022/04/09 03:33:00;;;;;;;1.80;0.70;;;;;;;;;;5027221;28;20473;-68
2022/04/09 03:35:26;;;;;;;0.60;0.50;;;;;;;;;;5025072;28;20033;-69
2022/04/09 03:37:52;;;;;;;1.83;0.70;;;;;;;;;;5027884;28;20028;-70
2022/04/09 03:40:18;;;;;;;5.65;0.70;;;;;;;;;;5020248;28;20039;-70
2022/04/09 03:42:44;;;;;;;0.70;0.57;;;;;;;;;;5022379;28;20045;-69
2022/04/09 03:45:10;;;;;;;2.22;0.80;;;;;;;;;;5024615;28;20029;-70
2022/04/09 03:47:35;;;;;;;1.88;0.50;;;;;;;;;;5023457;28;20037;-69
2022/04/09 03:50:02;;;;;;;3.90;0.80;;;;;;;;;;5031014;28;20024;-70
2022/04/09 03:52:28;;;;;;;1.27;0.63;;;;;;;;;;5021271;28;20061;-69
2022/04/09 03:54:54;;;;;;;1.77;0.60;;;;;;;;;;5027610;28;20423;-70
2022/04/09 03:57:19;;;;;;;0.85;0.50;;;;;;;;;;5020003;28;20122;-69
2022/04/09 03:59:45;;;;;;;0.63;0.50;;;;;;;;;;5022748;28;20037;-69
2022/04/09 04:02:10;;;;;;;2.05;1.08;;;;;;;;;;5022098;28;20504;-68
2022/04/09 04:04:37;;;;;;;2.38;0.52;;;;;;;;;;5024887;28;20618;-70
2022/04/09 04:07:04;;;;;;;1.58;0.55;;;;;;;;;;5021584;28;20026;-69
2022/04/09 04:09:30;;;;;;;2.28;0.57;;;;;;;;;;5026074;28;20026;-68
2022/04/09 04:11:56;;;;;;;2.10;0.50;;;;;;;;;;5022737;28;20045;-69
2022/04/09 04:14:21;;;;;;;0.75;0.47;;;;;;;;;;5024279;28;20084;-69
2022/04/09 04:16:47;;;;;;;4.53;0.43;;;;;;;;;;5020046;28;20490;-70
2022/04/09 04:19:13;;;;;;;3.15;0.50;;;;;;;;;;5019068;28;20059;-69
2022/04/09 04:21:39;;;;;;;0.95;0.40;;;;;;;;;;5017556;28;20037;-70
2022/04/09 04:24:05;;;;;;;2.28;0.68;;;;;;;;;;5019227;28;20130;-69
2022/04/09 04:26:31;;;;;;;1.40;0.57;;;;;;;;;;5021436;28;20570;-69
2022/04/09 04:28:57;;;;;;;0.88;0.50;;;;;;;;;;5026019;28;20075;-69
2022/04/09 04:31:22;;;;;;;1.40;0.73;;;;;;;;;;5015477;28;20065;-69
2022/04/09 04:33:48;;;;;;;0.82;0.45;;;;;;;;;;5018249;28;20434;-70
2022/04/09 04:36:14;;;;;;;1.38;0.50;;;;;;;;;;5015241;28;20675;-69
2022/04/09 04:38:40;;;;;;;1.63;0.77;;;;;;;;;;5024555;28;20021;-70
2022/04/09 04:41:06;;;;;;;0.70;0.70;;;;;;;;;;5016046;28;20038;-69
2022/04/09 04:43:32;;;;;;;1.70;0.68;;;;;;;;;;5012707;28;20501;-69
2022/04/09 04:45:58;;;;;;;2.88;0.50;;;;;;;;;;5021292;28;20033;-70
2022/04/09 04:48:24;;;;;;;2.50;0.90;;;;;;;;;;5018685;28;20423;-69
2022/04/09 04:50:50;;;;;;;1.35;0.50;;;;;;;;;;5027395;28;20060;-69
2022/04/09 04:53:16;;;;;;;1.42;0.65;;;;;;;;;;5029688;28;20069;-69
2022/04/09 04:55:43;;;;;;;1.45;0.70;;;;;;;;;;5027535;28;20040;-69
2022/04/09 04:58:08;;;;;;;1.50;0.60;;;;;;;;;;5029704;28;20032;-69
2022/04/09 05:00:34;;;;;;;3.17;0.60;;;;;;;;;;5019387;28;20076;-70
2022/04/09 05:03:00;;;;;;;3.47;0.70;;;;;;;;;;5015367;28;20183;-69
2022/04/09 05:05:26;;;;;;;2.28;0.73;;;;;;;;;;5022545;28;20034;-69
2022/04/09 05:07:53;;;;;;;2.65;0.55;;;;;;;;;;5021776;28;20053;-70
2022/04/09 05:10:22;;;;;;;1.38;0.60;;;;;;;;;;5019908;28;20541;-70
2022/04/09 05:12:50;;;;;;;1.55;0.50;;;;;;;;;;5017716;28;20669;-69
2022/04/09 05:15:16;;;;;;;3.20;0.70;;;;;;;;;;5020536;28;20452;-70
2022/04/09 05:17:43;;;;;;;0.93;0.38;;;;;;;;;;5013933;28;20461;-69
2022/04/09 05:20:14;;;;;;;3.42;0.55;;;;;;;;;;5018224;28;20112;-70
2022/04/09 05:22:46;;;;;;;1.17;0.70;;;;;;;;;;5019531;28;20034;-69
2022/04/09 05:25:13;;;;;;;1.63;0.88;;;;;;;;;;5026128;28;20043;-69
2022/04/09 05:27:43;;;;;;;1.45;0.70;;;;;;;;;;5018458;28;20470;-69
2022/04/09 05:30:09;;;;;;;0.98;0.50;;;;;;;;;;5024939;28;20462;-69
2022/04/09 05:32:36;;;;;;;0.93;0.90;;;;;;;;;;5017309;28;20025;-69
2022/04/09 05:35:08;;;;;;;2.45;0.60;;;;;;;;;;5018444;28;20397;-69
2022/04/09 05:37:34;;;;;;;;;;;;;;;;;;5015971;28;20041;-68
2022/04/09 05:39:59;;;;;;;1.80;0.47;;;;;;;;;;5017215;28;19922;-70
2022/04/09 05:42:25;;;;;;;1.77;0.60;;;;;;;;;;5014576;28;20390;-69
2022/04/09 05:44:53;;;;;;;1.20;0.40;;;;;;;;;;5032440;28;20036;-69
2022/04/09 05:47:19;;;;;;;0.73;0.32;;;;;;;;;;5021988;28;20033;-70
2022/04/09 05:49:44;;;;;;;0.60;0.30;;;;;;;;;;5015882;28;20025;-70
2022/04/09 05:52:10;;;;;;;4.63;0.40;;;;;;;;;;5023353;28;20029;-69
2022/04/09 05:54:36;;;;;;;1.20;0.50;;;;;;;;;;5026618;28;20064;-69
2022/04/09 05:57:03;;;;;;;3.15;0.47;;;;;;;;;;5026635;28;20438;-69
2022/04/09 05:59:30;;;;;;;1.70;0.40;;;;;;;;;;5028735;28;20025;-69
2022/04/09 06:01:56;;;;;;;0.63;0.50;;;;;;;;;;5017288;28;20121;-70
2022/04/09 06:04:22;;;;;;;1.05;0.40;;;;;;;;;;5018120;28;20117;-71
2022/04/09 06:06:49;;;;;;;3.75;0.60;;;;;;;;;;5021805;28;20029;-70
2022/04/09 06:09:15;;;;;;;0.57;0.47;;;;;;;;;;5020403;28;20045;-71
2022/04/09 06:11:41;;;;;;;0.20;0.20;;;;;;;;;;5019484;28;20036;-70
2022/04/09 06:14:09;;;;;;;2.33;0.52;;;;;;;;;;5017320;28;20026;-69
2022/04/09 06:16:38;;;;;;;1.00;0.50;;;;;;;;;;5014366;28;20036;-69
2022/04/09 06:19:07;;;;;;;1.58;0.38;;;;;;;;;;5014225;28;20363;-69
2022/04/09 06:21:33;;;;;;;0.52;0.40;;;;;;;;;;5024995;28;20033;-70
2022/04/09 06:24:00;;;;;;;0.40;0.40;;;;;;;;;;5022177;28;20116;-70
2022/04/09 06:26:27;;;;;;;0.43;0.40;;;;;;;;;;5024715;28;20025;-70
2022/04/09 06:28:53;;;;;;;0.22;0.20;;;;;;;;;;5027189;28;20032;-69
2022/04/09 06:31:19;;;;;;;0.52;0.50;;;;;;;;;;5021201;28;20082;-70
2022/04/09 06:33:44;;;;;;;2.10;0.22;;;;;;;;;;5024424;28;20119;-70
2022/04/09 06:36:10;;;;;;;0.30;0.30;;;;;;;;;;5027066;28;20029;-71
2022/04/09 06:38:36;;;;;;;0.60;0.22;;;;;;;;;;5025192;28;20064;-69
2022/04/09 06:41:01;;;;;;;0.60;0.30;;;;;;;;;;5027074;28;20061;-69
2022/04/09 06:43:27;;;;;;;3.55;0.32;;;;;;;;;;5019052;28;20046;-69
2022/04/09 06:45:53;;;;;;;0.38;0.20;;;;;;;;;;5022847;28;20029;-70
2022/04/09 06:48:18;;;;;;;0.60;0.40;;;;;;;;;;5022502;28;20540;-69
2022/04/09 06:50:44;;;;;;;3.60;0.30;;;;;;;;;;5021628;28;20033;-69
2022/04/09 06:53:10;;;;;;;0.63;0.47;;;;;;;;;;5023841;28;20403;-70
2022/04/09 06:55:36;;;;;;;4.20;0.40;;;;;;;;;;5022238;28;20474;-70
2022/04/09 06:58:03;;;;;;;0.65;0.28;;;;;;;;;;5026904;28;20097;-70
2022/04/09 07:00:29;;;;;;;0.50;0.40;;;;;;;;;;5020934;28;20145;-69
2022/04/09 07:02:54;;;;;;;0.55;0.30;;;;;;;;;;5016035;28;20043;-70
2022/04/09 07:05:20;;;;;;;0.68;0.30;;;;;;;;;;5015052;28;20471;-69
2022/04/09 07:07:50;;;;;;;0.30;0.30;;;;;;;;;;5028188;28;20032;-69
2022/04/09 07:10:16;;;;;;;0.20;0.20;;;;;;;;;;5020548;28;20110;-70
2022/04/09 07:12:43;;;;;;;3.50;0.35;;;;;;;;;;5020708;28;20073;-69
2022/04/09 07:15:09;;;;;;;3.35;0.30;;;;;;;;;;5026699;28;20040;-69
2022/04/09 07:17:36;;;;;;;0.30;0.30;;;;;;;;;;5014558;28;20033;-68
2022/04/09 07:20:07;;;;;;;2.17;0.40;;;;;;;;;;5022415;28;20116;-69
2022/04/09 07:22:35;;;;;;;2.40;0.47;;;;;;;;;;5017042;28;20025;-69
2022/04/09 07:25:01;;;;;;;0.40;0.40;;;;;;;;;;5016431;28;20030;-69
2022/04/09 07:27:54;;;;;;;2.55;0.30;;;;;;;;;;5016894;28;20038;-69
2022/04/09 07:30:21;;;;;;;5.72;0.40;;;;;;;;;;5011719;28;20407;-68
2022/04/09 07:32:48;;;;;;;2.22;0.25;;;;;;;;;;5022221;28;20479;-69
2022/04/09 07:35:14;;;;;;;3.70;0.40;;;;;;;;;;5017054;28;20060;-69
2022/04/09 07:37:50;;;;;;;4.05;0.40;;;;;;;;;;5023008;28;20152;-68
2022/04/09 07:40:19;;;;;;;5.28;0.55;;;;;;;;;;5020309;28;20569;-68
2022/04/09 07:42:45;;;;;;;2.15;0.30;;;;;;;;;;5026916;28;20469;-68
2022/04/09 07:45:12;;;;;;;0.63;0.30;;;;;;;;;;5018090;28;20122;-68
2022/04/09 07:47:38;;;;;;;4.55;0.60;;;;;;;;;;5020699;28;20112;-67
2022/04/09 07:50:07;;;;;;;2.20;0.20;;;;;;;;;;5016611;28;20842;-68
2022/04/09 07:52:32;;;;;;;3.60;0.40;;;;;;;;;;5023454;28;20109;-68
2022/04/09 07:54:58;;;;;;;1.85;0.47;;;;;;;;;;5018668;28;20511;-68
2022/04/09 07:57:25;;;;;;;0.30;0.10;;;;;;;;;;5022621;28;20021;-68
2022/04/09 07:59:53;;;;;;;2.08;0.43;;;;;;;;;;5027362;28;20412;-70
2022/04/09 08:02:20;;;;;;;5.15;0.40;;;;;;;;;;5017020;28;20049;-70
2022/04/09 08:04:45;;;;;;;1.05;0.15;;;;;;;;;;5023971;28;20098;-69
2022/04/09 08:07:11;;;;;;;4.32;0.30;;;;;;;;;;5013241;28;20034;-69
2022/04/09 08:09:37;;;;;;;1.65;0.20;;;;;;;;;;5012768;28;20030;-69
2022/04/09 08:12:03;;;;;;;5.32;0.25;;;;;;;;;;5025051;28;20121;-70
2022/04/09 08:14:32;;;;;;;1.80;0.52;;;;;;;;;;5024589;28;20120;-70
2022/04/09 08:16:59;;;;;;;6.05;0.30;;;;;;;;;;5018602;28;20109;-69
2022/04/09 08:19:25;;;;;;;1.45;0.35;;;;;;;;;;5024506;28;20025;-70
2022/04/09 08:21:52;;;;;;;0.38;0.30;;;;;;;;;;5031236;28;20026;-69
2022/04/09 08:24:17;;;;;;;0.10;0.10;;;;;;;;;;5021623;28;20396;-70
2022/04/09 08:26:43;;;;;;;1.00;0.28;;;;;;;;;;5026757;28;20022;-70
2022/04/09 08:29:10;;;;;;;0.10;0.10;;;;;;;;;;5027182;28;20033;-69
2022/04/09 08:31:36;;;;;;;1.02;0.25;;;;;;;;;;5021184;28;20116;-70
2022/04/09 08:34:02;;;;;;;1.98;0.50;;;;;;;;;;5018572;28;20120;-69
2022/04/09 08:36:27;;;;;;;2.58;0.47;;;;;;;;;;5020062;28;20060;-69
2022/04/09 08:38:55;;;;;;;3.10;0.20;;;;;;;;;;5032193;28;20029;-70
2022/04/09 08:41:21;;;;;;;1.60;0.30;;;;;;;;;;5033333;28;20025;-70
2022/04/09 08:43:47;;;;;;;0.70;0.68;;;;;;;;;;5030564;28;20037;-69
2022/04/09 08:46:13;;;;;;;5.18;0.50;;;;;;;;;;5024554;28;20032;-70
2022/04/09 08:48:44;;;;;;;0.55;0.28;;;;;;;;;;5018899;28;20498;-70
2022/04/09 08:51:10;;;;;;;7.38;0.30;;;;;;;;;;5024177;28;20034;-72
2022/04/09 08:53:37;;;;;;;1.48;0.30;;;;;;;;;;5018443;28;20029;-68
2022/04/09 08:56:03;;;;;;;0.57;0.20;;;;;;;;;;5026905;28;20111;-71
2022/04/09 08:58:29;;;;;;;0.85;0.32;;;;;;;;;;5020760;28;20021;-69
2022/04/09 09:00:55;;;;;;;10.07;0.30;;;;;;;;;;5015269;28;20234;-69
2022/04/09 09:03:21;;;;;;;9.68;0.88;;;;;;;;;;5019916;28;20073;-69
2022/04/09 09:05:52;;;;;;;1.38;0.35;;;;;;;;;;5019503;28;20038;-70
2022/04/09 09:08:35;;;;;;;2.55;0.40;;;;;;;;;;5014519;28;20029;-68
2022/04/09 09:11:01;;;;;;;1.30;0.10;;;;;;;;;;5024033;28;20033;-68
2022/04/09 09:13:26;;;;;;;6.78;0.55;;;;;;;;;;5016222;28;20052;-72
2022/04/09 09:15:55;;;;;;;3.50;0.45;;;;;;;;;;5012566;28;20505;-68
2022/04/09 09:18:25;;;;;;;7.82;0.60;;;;;;;;;;5027050;28;20032;-68
2022/04/09 09:20:52;;;;;;;4.20;0.40;;;;;;;;;;5028963;28;20508;-68
2022/04/09 09:23:27;;;;;;;3.45;0.30;;;;;;;;;;5025161;28;20041;-68
2022/04/09 09:25:57;;;;;;;2.53;0.30;;;;;;;;;;5017995;28;20030;-69
2022/04/09 09:28:32;;;;;;;1.08;0.20;;;;;;;;;;5015683;28;20029;-68
2022/04/09 09:31:00;;;;;;;9.70;0.40;;;;;;;;;;5013957;28;20478;-68
2022/04/09 09:33:26;;;;;;;0.30;0.30;;;;;;;;;;5026424;28;20034;-68
2022/04/09 09:35:59;;;;;;;0.20;0.20;;;;;;;;;;5024452;28;20367;-72
2022/04/09 09:38:29;;;;;;;7.95;0.50;;;;;;;;;;5018406;28;20116;-68
2022/04/09 09:40:56;;;;;;;2.40;0.20;;;;;;;;;;5027077;28;20037;-68
2022/04/09 09:43:24;;;;;;;0.93;0.10;;;;;;;;;;5015574;28;20783;-68
2022/04/09 09:45:51;;;;;;;1.75;0.15;;;;;;;;;;5028941;28;20101;-69
2022/04/09 09:48:20;;;;;;;1.50;0.50;;;;;;;;;;5017743;28;20383;-69
2022/04/09 09:50:46;;;;;;;2.08;0.38;;;;;;;;;;5019290;28;20042;-69
2022/04/09 09:53:12;;;;;;;0.75;0.30;;;;;;;;;;5020942;28;20045;-68
2022/04/09 09:55:44;;;;;;;0.40;0.40;;;;;;;;;;5024408;28;20033;-69
2022/04/09 09:58:13;;;;;;;3.20;0.28;;;;;;;;;;5017063;28;20064;-68
2022/04/09 10:00:39;;;;;;;0.57;0.20;;;;;;;;;;5017128;28;20041;-68
2022/04/09 10:03:06;;;;;;;2.78;0.22;;;;;;;;;;5020638;28;20033;-69
2022/04/09 10:05:32;;;;;;;0.30;0.30;;;;;;;;;;5024699;28;20033;-67
2022/04/09 10:07:59;;;;;;;0.95;0.40;;;;;;;;;;5025828;28;20493;-68
2022/04/09 10:10:27;;;;;;;0.47;0.40;;;;;;;;;;5021279;28;20084;-69
2022/04/09 10:12:55;;;;;;;1.55;0.32;;;;;;;;;;5018329;28;20091;-69
2022/04/09 10:15:26;;;;;;;7.38;0.95;;;;;;;;;;5029795;28;20533;-69
2022/04/09 10:17:55;;;;;;;2.38;0.60;;;;;;;;;;5025738;28;20096;-70
2022/04/09 10:20:25;;;;;;;0.60;0.35;;;;;;;;;;5027902;28;20076;-72
2022/04/09 10:22:55;;;;;;;1.13;0.32;;;;;;;;;;5016338;28;20033;-70
2022/04/09 10:25:24;;;;;;;2.50;0.50;;;;;;;;;;5019286;28;20508;-69
2022/04/09 10:27:53;;;;;;;3.92;0.50;;;;;;;;;;5015063;28;20561;-70
2022/04/09 10:30:21;;;;;;;3.67;0.50;;;;;;;;;;5019157;28;20486;-71
2022/04/09 10:32:48;;;;;;;1.30;0.40;;;;;;;;;;5022371;28;20041;-69
2022/04/09 10:35:40;;;;;;;2.08;0.30;;;;;;;;;;5025488;28;20041;-72
2022/04/09 10:38:12;;;;;;;6.65;0.50;;;;;;;;;;5020890;28;20486;-71
2022/04/09 10:40:50;;;;;;;1.73;0.40;;;;;;;;;;5025279;28;20108;-70
2022/04/09 10:43:37;;;;;;;0.95;0.45;;;;;;;;;;5025726;28;20045;-69
2022/04/09 10:48:29;;;;;;;2.22;0.40;;;;;;;;;;5018954;28;20037;-68
2022/04/09 10:51:15;;;;;;;2.60;0.45;;;;;;;;;;5027980;28;20034;-67
2022/04/09 10:53:43;;;;;;;0.95;0.50;;;;;;;;;;5023829;28;20034;-68
2022/04/09 10:56:30;;;;;;;0.55;0.43;;;;;;;;;;5023625;28;20033;-68
2022/04/09 10:59:29;;;;;;;1.63;0.95;;;;;;;;;;5015039;28;20084;-67
2022/04/09 11:01:55;;;;;;;2.00;0.60;;;;;;;;;;5019692;28;20429;-69
2022/04/09 11:07:17;;;;;;;9.20;0.50;;;;;;;;;;5022539;28;20033;-68
2022/04/09 11:09:42;;;;;;;1.90;0.52;;;;;;;;;;5013976;28;20041;-69
2022/04/09 11:12:09;;;;;;;0.73;0.50;;;;;;;;;;5018120;28;20033;-69
2022/04/09 11:14:42;;;;;;;11.73;0.90;;;;;;;;;;5014793;28;20040;-70
2022/04/09 11:17:35;;;;;;;0.88;0.57;;;;;;;;;;5017510;28;20057;-67
2022/04/09 11:20:12;;;;;;;0.45;0.43;;;;;;;;;;4980447;28;20038;-70
2022/04/09 11:22:47;;;;;;;0.30;0.30;;;;;;;;;;4984647;28;20084;-69
2022/04/09 11:25:30;;;;;;;0.40;0.40;;;;;;;;;;4977871;28;20125;-69
2022/04/09 11:28:06;;;;;;;0.85;0.60;;;;;;;;;;4980950;28;20128;-69
2022/04/09 11:30:32;;;;;;;1.33;0.60;;;;;;;;;;4964688;28;20082;-68
2022/04/09 11:32:58;;;;;;;2.42;0.68;;;;;;;;;;4979086;28;20743;-69
2022/04/09 11:35:26;;;;;;;7.05;0.75;;;;;;;;;;4983833;28;20061;-67
2022/04/09 11:37:52;;;;;;;6.63;1.00;;;;;;;;;;4978694;28;20160;-67
2022/04/09 11:40:20;;;;;;;8.10;0.68;;;;;;;;;;4979498;28;20088;-67
2022/04/09 11:42:51;;;;;;;1.70;0.80;;;;;;;;;;4979521;28;20118;-67
2022/04/09 11:45:23;;;;;;;0.65;0.65;;;;;;;;;;4978410;28;20054;-67
2022/04/09 11:47:51;;;;;;;6.38;1.27;;;;;;;;;;4978140;28;20667;-66
2022/04/09 11:50:17;;;;;;;1.08;0.50;;;;;;;;;;4978223;28;20034;-67
2022/04/09 11:52:43;;;;;;;1.33;0.55;;;;;;;;;;4977537;28;20030;-67
2022/04/09 11:55:11;;;;;;;0.85;0.60;;;;;;;;;;4979744;28;20071;-67
2022/04/09 11:57:38;;;;;;;2.95;0.75;;;;;;;;;;5011603;28;20497;-66
2022/04/09 12:00:06;;;;;;;4.55;0.60;;;;;;;;;;5014270;28;20113;-67
2022/04/09 12:02:34;;;;;;;0.40;0.40;;;;;;;;;;5017880;28;20029;-67
2022/04/09 12:05:00;;;;;;;3.58;0.50;;;;;;;;;;5015672;28;20506;-67
2022/04/09 12:07:28;;;;;;;0.82;0.40;;;;;;;;;;5015309;28;20030;-68
2022/04/09 12:09:54;;;;;;;1.05;0.25;;;;;;;;;;5015545;28;20075;-68
2022/04/09 12:12:22;;;;;;;4.70;1.00;;;;;;;;;;5016315;28;20042;-68
2022/04/09 12:14:53;;;;;;;4.70;1.25;;;;;;;;;;5016514;28;20064;-70
2022/04/09 12:17:22;;;;;;;2.92;0.40;;;;;;;;;;5024289;28;20034;-68
2022/04/09 12:19:49;;;;;;;0.40;0.40;;;;;;;;;;5031022;28;20536;-67
2022/04/09 12:22:23;;;;;;;5.68;1.15;;;;;;;;;;5019161;28;20120;-67
2022/04/09 12:24:52;;;;;;;2.00;0.60;;;;;;;;;;5012540;28;20494;-67
2022/04/09 12:27:20;;;;;;;1.55;0.73;;;;;;;;;;5015937;28;20065;-68
2022/04/09 12:29:51;;;;;;;0.82;0.60;;;;;;;;;;5021998;28;20116;-69
2022/04/09 12:32:21;;;;;;;4.40;0.70;;;;;;;;;;5018605;28;20026;-69
2022/04/09 12:34:58;;;;;;;2.60;0.40;;;;;;;;;;5017096;28;20064;-67
2022/04/09 12:37:25;;;;;;;2.90;0.65;;;;;;;;;;5018913;28;20383;-69
2022/04/09 12:40:11;;;;;;;1.00;0.70;;;;;;;;;;5018986;28;20049;-68
2022/04/09 12:42:37;;;;;;;2.75;0.57;;;;;;;;;;5016811;28;20379;-67
2022/04/09 12:45:15;;;;;;;0.50;0.50;;;;;;;;;;5017394;28;20033;-69
2022/04/09 12:47:41;;;;;;;2.65;0.57;;;;;;;;;;5022452;28;20040;-70
2022/04/09 12:50:30;;;;;;;0.60;0.60;;;;;;;;;;5033060;28;20075;-69
2022/04/09 12:52:59;;;;;;;0.55;0.55;;;;;;;;;;5010230;28;20451;-69
2022/04/09 12:55:26;;;;;;;5.93;0.70;;;;;;;;;;5020984;28;20037;-70
2022/04/09 12:57:53;;;;;;;2.25;0.60;;;;;;;;;;5017968;28;20042;-70
2022/04/09 13:00:20;;;;;;;0.98;0.60;;;;;;;;;;5013695;28;20038;-71
2022/04/09 13:02:48;;;;;;;1.33;0.52;;;;;;;;;;5029533;28;20541;-70
2022/04/09 13:05:15;;;;;;;3.42;0.80;;;;;;;;;;5019929;28;20544;-70
2022/04/09 13:07:41;;;;;;;3.28;0.52;;;;;;;;;;5025309;28;20494;-69
2022/04/09 13:10:09;;;;;;;3.20;0.55;;;;;;;;;;5020606;28;20105;-71
2022/04/09 13:12:34;;;;;;;4.30;0.60;;;;;;;;;;5026046;28;20025;-66
2022/04/09 13:15:00;;;;;;;4.72;1.13;;;;;;;;;;5014597;28;20048;-67
2022/04/09 13:17:26;;;;;;;0.63;0.63;;;;;;;;;;5020258;28;20060;-68
2022/04/09 13:19:52;;;;;;;1.38;0.80;;;;;;;;;;5018606;28;20057;-69
2022/04/09 13:22:18;;;;;;;5.55;0.65;;;;;;;;;;5016791;28;20037;-70
2022/04/09 13:24:45;;;;;;;3.17;0.70;;;;;;;;;;5014698;28;20025;-69
2022/04/09 13:27:11;;;;;;;1.20;0.60;;;;;;;;;;5030337;28;20113;-69
2022/04/09 13:29:37;;;;;;;4.13;0.88;;;;;;;;;;5009599;28;20028;-69
2022/04/09 13:32:03;;;;;;;1.17;0.70;;;;;;;;;;5016225;28;20108;-69
2022/04/09 13:34:30;;;;;;;0.70;0.70;;;;;;;;;;5015674;28;20091;-67
2022/04/09 13:36:55;;;;;;;1.95;0.60;;;;;;;;;;5014078;28;20478;-68
2022/04/09 13:39:21;;;;;;;1.13;0.70;;;;;;;;;;5018574;28;20087;-67
2022/04/09 13:41:48;;;;;;;0.82;0.60;;;;;;;;;;5025638;28;20064;-69
2022/04/09 13:44:14;;;;;;;5.13;0.68;;;;;;;;;;5013215;28;20041;-68
2022/04/09 13:46:42;;;;;;;1.33;0.80;;;;;;;;;;5020633;28;20100;-66
2022/04/09 13:49:08;;;;;;;1.23;0.75;;;;;;;;;;5019609;28;20029;-67
2022/04/09 13:51:34;;;;;;;2.60;0.60;;;;;;;;;;5011723;28;20041;-71
2022/04/09 13:54:00;;;;;;;0.60;0.60;;;;;;;;;;5016599;28;20030;-67
2022/04/09 13:56:26;;;;;;;1.65;0.70;;;;;;;;;;5017273;28;20501;-68
2022/04/09 13:58:52;;;;;;;2.15;0.70;;;;;;;;;;5022361;28;20026;-66
2022/04/09 14:01:18;;;;;;;3.97;0.80;;;;;;;;;;5020113;28;20036;-67
2022/04/09 14:03:44;;;;;;;6.75;1.00;;;;;;;;;;5012676;28;20030;-68
2022/04/09 14:06:09;;;;;;;3.13;0.85;;;;;;;;;;5015461;28;20378;-68
2022/04/09 14:08:35;;;;;;;4.18;0.70;;;;;;;;;;5011060;28;20034;-69
2022/04/09 14:11:02;;;;;;;6.85;1.05;;;;;;;;;;5019000;28;20116;-68
2022/04/09 14:13:27;;;;;;;2.88;0.80;;;;;;;;;;5022509;28;20122;-67
2022/04/09 14:15:53;;;;;;;1.85;0.65;;;;;;;;;;5020314;28;20037;-69
2022/04/09 14:18:19;;;;;;;1.23;0.60;;;;;;;;;;5016120;28;20026;-69
2022/04/09 14:20:44;;;;;;;2.22;0.95;;;;;;;;;;5013745;28;20057;-69
2022/04/09 14:23:10;;;;;;;1.40;1.05;;;;;;;;;;5019178;28;20053;-68
2022/04/09 14:25:36;;;;;;;1.35;0.93;;;;;;;;;;5014207;28;20771;-67
2022/04/09 14:28:03;;;;;;;8.05;1.02;;;;;;;;;;5015066;28;20030;-68
2022/04/09 14:30:29;;;;;;;1.85;0.75;;;;;;;;;;5018014;28;20034;-68
2022/04/09 14:32:55;;;;;;;2.67;0.75;;;;;;;;;;5011841;28;20049;-68
2022/04/09 14:35:27;;;;;;;2.08;0.85;;;;;;;;;;5011962;28;20030;-69
2022/04/09 14:37:52;;;;;;;2.85;0.90;;;;;;;;;;5009831;28;20036;-67
2022/04/09 14:40:18;;;;;;;1.10;1.00;;;;;;;;;;5016215;28;20037;-69
2022/04/09 14:42:44;;;;;;;5.15;1.00;;;;;;;;;;5021510;28;20052;-68
2022/04/09 14:45:14;;;;;;;2.30;1.20;;;;;;;;;;5016968;28;20056;-68
2022/04/09 14:47:41;;;;;;;1.50;0.90;;;;;;;;;;5016033;28;20029;-71
2022/04/09 14:50:07;;;;;;;3.17;1.42;;;;;;;;;;5014847;28;20532;-69